• Join FlightAware (Why Join?)
  • Login
  • US Flag 
10:47PM EDT


 

Airport Tracker/Info


-or-


 

Live Flight TrackerFlight Track Log ✈ N960DL ✈ 18-Apr-2013 ✈ KATL - KDAY

Flight Track Log - Related Links

Times and Time Zones

All times are in EDT time to prevent confusion due to time zone crossing. See the N960DL flight status page for this flight to view local times or setup timezone preferences in your user account.

Time Position Orientation Groundspeed Altitude Reporting Facility
EDT Latitude Longitude Course Direction KTS MPH feet Rate Location/Type
06:16PM 33.6500 -84.3833 339° North 171 197 2,100  Level Atlanta TRACON
06:17PM 33.6500 -84.3167 90° East 230 265 3,100 1,800 Climbing Atlanta TRACON
06:18PM 33.6833 -84.2333 64° Northeast 278 320 5,800 2,280 Climbing Atlanta TRACON
06:19PM 33.8397 -84.1731 320° Northwest  Level FlightAware Approximate
06:20PM 33.9357 -84.2677 339° North  Level FlightAware Approximate
06:20PM 33.8233 -84.1839 16° North 312 359 10,000  Level Atlanta Center
06:21PM 34.0518 -84.3205 339° North  Level FlightAware Approximate
06:21PM 33.9131 -84.2492 329° Northwest 349 402 10,200  Level Atlanta Center
06:22PM 34.0153 -84.3069 335° Northwest 385 443 12,700 2,340 Climbing Atlanta Center
06:23PM 34.1111 -84.3475 341° North 402 463 14,900 2,400 Climbing Atlanta Center
06:24PM 34.2425 -84.3981 342° North 432 497 17,500 2,220 Climbing Atlanta Center
06:25PM 34.3656 -84.4214 351° North 439 505 19,400 1,800 Climbing Atlanta Center
06:26PM 34.4950 -84.4169 North 452 520 21,200 1,560 Climbing Atlanta Center
06:27PM 34.6161 -84.4147 North 467 537 22,600 1,620 Climbing Atlanta Center
06:29PM 34.7791 -84.4000 North  Level FlightAware Approximate
06:29PM 34.8831 -84.4111 North 476 548 26,100  Level Atlanta Center
06:30PM 35.0125 -84.4089 North 471 542 27,000 420 Climbing Atlanta Center
06:31PM 35.1461 -84.4044 North 471 542 27,000  Level Atlanta Center
06:32PM 35.2775 -84.4025 North 471 542 27,000  Level Atlanta Center
06:33PM 35.4089 -84.3956 North 471 542 27,000 60 Level Atlanta Center
06:34PM 35.5425 -84.3911 North 476 548 27,200 480 Climbing Atlanta Center
06:35PM 35.6761 -84.3889 North 476 548 28,000 360 Climbing Atlanta Center
06:36PM 35.8075 -84.3869 North 476 548 28,000  Level Atlanta Center
06:37PM 35.9514 -84.3850 North 471 542 28,000 300 Level Atlanta Center
06:39PM 36.1389 -84.3756 North 474 545 28,800 1,080 Climbing Indianapolis Center
06:40PM 36.2942 -84.3717 North 469 540 30,900 1,560 Climbing Indianapolis Center
06:41PM 36.4203 -84.3694 North 458 527 32,000 960 Climbing Indianapolis Center
06:42PM 36.5514 -84.3667 North 452 520 33,000 720 Climbing Indianapolis Center
06:43PM 36.6786 -84.3636 North 453 521 33,600 240 Climbing Indianapolis Center
06:44PM 36.8053 -84.3614 North 451 519 33,600 -720 Level Indianapolis Center
06:45PM 36.9292 -84.3767 354° North 445 512 32,200 -780 Descending Indianapolis Center
06:46PM 37.0517 -84.4033 350° North 446 513 32,000 -600 Descending Indianapolis Center
06:47PM 37.1769 -84.4244 352° North 455 524 31,000 -540 Descending Indianapolis Center
06:48PM 37.3272 -84.3997 North 465 535 31,000  Level Indianapolis Center
06:49PM 37.4575 -84.3922 North 465 535 31,000  Level Indianapolis Center
06:50PM 37.5886 -84.3836 North 468 539 31,000 -480 Level Indianapolis Center
06:51PM 37.7192 -84.3750 North 467 537 30,100 -540 Descending Indianapolis Center
06:52PM 37.8500 -84.3658 North 470 541 30,000 -300 Descending Indianapolis Center
06:53PM 37.9822 -84.3569 North 472 543 29,600 -2,160 Descending Indianapolis Center
06:54PM 38.1150 -84.3472 North 479 551 25,600 -2,760 Descending Indianapolis Center
06:55PM 38.2783 -84.3356 North 500 575 24,000 -1,380 Descending Indianapolis Center
06:56PM 38.4122 -84.3264 North 486 559 22,800 -2,400 Descending Indianapolis Center
06:57PM 38.5436 -84.3172 North 474 545 19,200 -3,300 Descending Indianapolis Center
06:58PM 38.6736 -84.3150 North 469 540 16,000 -2,760 Descending Indianapolis Center
06:59PM 38.7908 -84.3694 340° North 436 502 13,600 -2,220 Descending Indianapolis Center
07:00PM 38.8833 -84.4000 346° North 417 480 12,100 -960 Descending Cincinnati TRACON
07:01PM 38.9833 -84.4500 339° North 408 470 12,000 -60 Descending Cincinnati TRACON
07:02PM 39.1000 -84.5000 342° North 407 468 12,000 -300 Level Cincinnati TRACON
07:03PM 39.2000 -84.5500 339° North 356 410 11,400 -660 Descending Cincinnati TRACON
07:03PM 39.2183 -84.5417 19° North 383 441 11,100 -960 Descending Indianapolis Center
07:04PM 39.3036 -84.4792 30° Northeast 358 412 10,100 -540 Descending Indianapolis Center
07:06PM 39.3828 -84.4189 30° Northeast 341 392 10,000 -120 Descending Indianapolis Center
07:07PM 39.4758 -84.3475 31° Northeast 332 382 9,900 -60 Descending Indianapolis Center
07:08PM 39.5706 -84.3414 North 335 386 9,900  Level Indianapolis Center
07:09PM 39.6656 -84.3333 North 338 389 9,900  Level Indianapolis Center
07:10PM 39.7625 -84.3242 North 341 392 9,900  Level Indianapolis Center
07:11PM 39.8536 -84.3175 North 336 387 9,900 -1,080 Level Indianapolis Center
07:12PM 39.9378 -84.3283 354° North 315 362 7,800 -2,460 Descending Indianapolis Center
07:13PM 40.0231 -84.3367 356° North 306 352 4,900 -2,820 Descending Indianapolis Center